Time;durP1;ratioP1;P1;durP2;ratioP2;P2;SDS_P1;SDS_P2;PMS_P1;PMS_P2;Temp;Humidity;BMP_temperature;BMP_pressure;BME280_temperature;BME280_humidity;BME280_pressure;Samples;Min_cycle;Max_cycle;Signal;HPM_P1;HPM_P2
2023/12/06 00:00:05;;;;;;;32.45;13.98;;;;;;;;;;5096609;28;20024;-75
2023/12/06 00:02:30;;;;;;;32.85;13.98;;;;;;;;;;5095838;28;20085;-74
2023/12/06 00:04:55;;;;;;;19.02;7.50;;;;;;;;;;5096584;28;20032;-76
2023/12/06 00:07:21;;;;;;;32.25;14.50;;;;;;;;;;5096319;28;20027;-75
2023/12/06 00:09:46;;;;;;;27.83;12.52;;;;;;;;;;5094787;28;20097;-76
2023/12/06 00:12:11;;;;;;;33.33;13.88;;;;;;;;;;5096492;28;20111;-75
2023/12/06 00:14:36;;;;;;;29.08;13.35;;;;;;;;;;5095039;28;20052;-75
2023/12/06 00:17:02;;;;;;;33.55;14.98;;;;;;;;;;5096387;28;20028;-77
2023/12/06 00:19:27;;;;;;;33.17;14.82;;;;;;;;;;5096390;28;20148;-75
2023/12/06 00:21:52;;;;;;;25.77;9.50;;;;;;;;;;5096267;28;20024;-75
2023/12/06 00:24:18;;;;;;;35.90;15.68;;;;;;;;;;5095004;28;20031;-76
2023/12/06 00:26:43;;;;;;;35.45;16.25;;;;;;;;;;5095801;28;20047;-75
2023/12/06 00:29:09;;;;;;;34.88;15.75;;;;;;;;;;5094773;28;20394;-76
2023/12/06 00:31:34;;;;;;;38.20;15.10;;;;;;;;;;5095125;28;20024;-75
2023/12/06 00:33:59;;;;;;;31.25;13.55;;;;;;;;;;5094344;28;20023;-75
2023/12/06 00:36:24;;;;;;;13.27;6.80;;;;;;;;;;5095338;28;20024;-76
2023/12/06 00:38:49;;;;;;;37.83;15.57;;;;;;;;;;5094394;28;20020;-76
2023/12/06 00:41:15;;;;;;;26.48;11.35;;;;;;;;;;5095355;28;20088;-76
2023/12/06 00:43:40;;;;;;;27.63;11.65;;;;;;;;;;5096653;28;20023;-76
2023/12/06 00:46:05;;;;;;;19.25;9.32;;;;;;;;;;5096033;28;20029;-75
2023/12/06 00:48:31;;;;;;;35.13;15.35;;;;;;;;;;5098837;28;20118;-75
2023/12/06 00:50:56;;;;;;;33.13;14.20;;;;;;;;;;5098361;28;20028;-75
2023/12/06 00:53:21;;;;;;;37.35;15.65;;;;;;;;;;5098132;28;20020;-76
2023/12/06 00:55:46;;;;;;;30.55;14.38;;;;;;;;;;5100231;28;20024;-75
2023/12/06 00:58:11;;;;;;;25.13;10.05;;;;;;;;;;5097053;28;20116;-75
2023/12/06 01:00:37;;;;;;;25.67;11.63;;;;;;;;;;5098316;28;20056;-75
2023/12/06 01:03:02;;;;;;;23.02;8.50;;;;;;;;;;5100272;28;20039;-75
2023/12/06 01:05:27;;;;;;;31.80;12.55;;;;;;;;;;5099434;28;20081;-75
2023/12/06 01:07:52;;;;;;;41.83;17.48;;;;;;;;;;5098113;28;20103;-75
2023/12/06 01:10:17;;;;;;;33.95;13.13;;;;;;;;;;5097454;28;20390;-76
2023/12/06 01:12:43;;;;;;;36.40;14.02;;;;;;;;;;5096248;28;20024;-76
2023/12/06 01:15:09;;;;;;;23.85;11.70;;;;;;;;;;5097140;28;20035;-76
2023/12/06 01:17:34;;;;;;;25.45;11.75;;;;;;;;;;5094962;28;20031;-75
2023/12/06 01:19:59;;;;;;;34.13;15.32;;;;;;;;;;5096757;28;20055;-76
2023/12/06 01:22:25;;;;;;;39.72;16.23;;;;;;;;;;5095451;28;20016;-76
2023/12/06 01:24:56;;;;;;;22.90;9.63;;;;;;;;;;5093532;28;20051;-76
2023/12/06 01:27:21;;;;;;;31.15;13.40;;;;;;;;;;5095191;28;20058;-76
2023/12/06 01:29:46;;;;;;;40.80;17.27;;;;;;;;;;5093239;28;20425;-75
2023/12/06 01:32:11;;;;;;;34.45;13.88;;;;;;;;;;5094927;28;20403;-75
2023/12/06 01:34:37;;;;;;;35.28;15.38;;;;;;;;;;5093381;28;20368;-75
2023/12/06 01:37:02;;;;;;;32.70;13.95;;;;;;;;;;5094488;28;20020;-75
2023/12/06 01:39:27;;;;;;;28.73;12.30;;;;;;;;;;5094565;28;20024;-76
2023/12/06 01:41:54;;;;;;;33.88;13.65;;;;;;;;;;5094349;28;20020;-75
2023/12/06 01:44:19;;;;;;;16.85;8.75;;;;;;;;;;5094460;28;20023;-76
2023/12/06 01:46:45;;;;;;;40.72;16.52;;;;;;;;;;5094413;28;20104;-76
2023/12/06 01:49:12;;;;;;;20.00;9.73;;;;;;;;;;5094361;28;20115;-75
2023/12/06 01:51:38;;;;;;;30.15;12.82;;;;;;;;;;5093030;28;20111;-75
2023/12/06 01:54:04;;;;;;;26.85;12.88;;;;;;;;;;5094318;28;20070;-75
2023/12/06 01:56:30;;;;;;;34.67;15.63;;;;;;;;;;5092130;28;20039;-76
2023/12/06 01:58:55;;;;;;;15.45;6.10;;;;;;;;;;5093062;28;20077;-76
2023/12/06 02:01:22;;;;;;;34.53;13.27;;;;;;;;;;5093841;28;20016;-75
2023/12/06 02:03:48;;;;;;;33.30;14.35;;;;;;;;;;5092441;28;20180;-76
2023/12/06 02:06:13;;;;;;;20.00;8.35;;;;;;;;;;5093874;28;20058;-75
2023/12/06 02:08:41;;;;;;;38.22;16.40;;;;;;;;;;5092223;28;20028;-76
2023/12/06 02:11:06;;;;;;;30.48;12.32;;;;;;;;;;5092324;28;20476;-76
2023/12/06 02:13:32;;;;;;;25.50;10.27;;;;;;;;;;5092196;28;20040;-76
2023/12/06 02:15:57;;;;;;;33.08;15.27;;;;;;;;;;5092364;28;20036;-75
2023/12/06 02:18:23;;;;;;;28.20;12.73;;;;;;;;;;5093726;28;20024;-76
2023/12/06 02:20:49;;;;;;;37.10;15.43;;;;;;;;;;5092352;28;20016;-75
2023/12/06 02:23:15;;;;;;;39.53;17.85;;;;;;;;;;5094390;28;20409;-75
2023/12/06 02:25:42;;;;;;;36.70;16.15;;;;;;;;;;5093461;28;20028;-75
2023/12/06 02:28:07;;;;;;;31.58;12.15;;;;;;;;;;5093541;28;20024;-76
2023/12/06 02:30:32;;;;;;;27.20;11.50;;;;;;;;;;5093175;28;20073;-77
2023/12/06 02:32:58;;;;;;;17.00;7.53;;;;;;;;;;5092174;28;20024;-76
2023/12/06 02:35:30;;;;;;;32.03;14.07;;;;;;;;;;5094329;28;20032;-76
2023/12/06 02:37:58;;;;;;;36.90;15.20;;;;;;;;;;5093634;28;20028;-76
2023/12/06 02:40:27;;;;;;;36.60;16.40;;;;;;;;;;5093434;28;20024;-76
2023/12/06 02:42:52;;;;;;;31.23;14.30;;;;;;;;;;5091908;28;20507;-75
2023/12/06 02:45:17;;;;;;;36.42;15.85;;;;;;;;;;5093367;28;20111;-75
2023/12/06 02:47:42;;;;;;;21.30;8.65;;;;;;;;;;5093100;28;20044;-76
2023/12/06 02:50:08;;;;;;;33.90;14.48;;;;;;;;;;5093212;28;20030;-75
2023/12/06 02:52:33;;;;;;;31.90;13.77;;;;;;;;;;5093117;28;20046;-76
2023/12/06 02:54:59;;;;;;;33.30;14.98;;;;;;;;;;5093377;28;20103;-75
2023/12/06 02:57:24;;;;;;;30.13;14.10;;;;;;;;;;5093484;28;20501;-75
2023/12/06 02:59:49;;;;;;;36.83;15.65;;;;;;;;;;5093834;28;20031;-75
2023/12/06 03:02:14;;;;;;;31.27;14.88;;;;;;;;;;5092447;28;20024;-75
2023/12/06 03:04:39;;;;;;;26.95;12.73;;;;;;;;;;5093573;28;20077;-76
2023/12/06 03:07:05;;;;;;;30.42;14.23;;;;;;;;;;5093522;28;20036;-75
2023/12/06 03:09:30;;;;;;;30.88;12.70;;;;;;;;;;5095902;28;20028;-75
2023/12/06 03:11:55;;;;;;;32.05;13.48;;;;;;;;;;5097213;28;20035;-75
2023/12/06 03:14:20;;;;;;;27.58;11.82;;;;;;;;;;5096820;28;20032;-75
2023/12/06 03:16:46;;;;;;;28.08;12.90;;;;;;;;;;5095527;28;20052;-75
2023/12/06 03:19:11;;;;;;;31.38;14.88;;;;;;;;;;5096376;28;20086;-76
2023/12/06 03:21:36;;;;;;;34.88;14.52;;;;;;;;;;5095497;28;20028;-76
2023/12/06 03:24:01;;;;;;;35.47;14.27;;;;;;;;;;5095736;28;20024;-75
2023/12/06 03:26:27;;;;;;;27.10;12.57;;;;;;;;;;5096473;28;20030;-76
2023/12/06 03:28:52;;;;;;;29.92;13.05;;;;;;;;;;5096735;28;20028;-76
2023/12/06 03:31:17;;;;;;;29.15;13.68;;;;;;;;;;5096712;28;20024;-76
2023/12/06 03:33:42;;;;;;;34.17;15.15;;;;;;;;;;5095301;28;20055;-76
2023/12/06 03:36:12;;;;;;;30.35;13.50;;;;;;;;;;5095631;28;20023;-75
2023/12/06 03:38:37;;;;;;;30.42;12.95;;;;;;;;;;5096983;28;20020;-75
2023/12/06 03:41:03;;;;;;;30.70;13.38;;;;;;;;;;5096600;28;20031;-76
2023/12/06 03:43:28;;;;;;;31.98;14.68;;;;;;;;;;5096561;28;20028;-76
2023/12/06 03:45:53;;;;;;;32.13;13.45;;;;;;;;;;5096325;28;20046;-76
2023/12/06 03:48:19;;;;;;;35.17;14.90;;;;;;;;;;5096578;28;20090;-75
2023/12/06 03:50:44;;;;;;;30.42;13.15;;;;;;;;;;5096457;28;20032;-76
2023/12/06 03:53:09;;;;;;;29.08;12.30;;;;;;;;;;5095613;28;20023;-75
2023/12/06 03:55:34;;;;;;;33.22;14.52;;;;;;;;;;5098367;28;20031;-75
2023/12/06 03:57:59;;;;;;;34.72;14.27;;;;;;;;;;5095422;28;20398;-75
2023/12/06 04:00:25;;;;;;;34.35;15.23;;;;;;;;;;5096964;28;20026;-75
2023/12/06 04:02:50;;;;;;;34.70;14.40;;;;;;;;;;5097028;28;20016;-75
2023/12/06 04:05:15;;;;;;;34.15;14.48;;;;;;;;;;5097355;28;20069;-75
2023/12/06 04:07:40;;;;;;;34.72;14.82;;;;;;;;;;5095324;28;20020;-75
2023/12/06 04:10:06;;;;;;;25.33;11.73;;;;;;;;;;5096174;28;20085;-75
2023/12/06 04:12:31;;;;;;;28.67;12.43;;;;;;;;;;5096009;28;20059;-75
2023/12/06 04:14:56;;;;;;;28.27;12.98;;;;;;;;;;5094246;28;20024;-76
2023/12/06 04:17:22;;;;;;;32.30;14.50;;;;;;;;;;5095872;28;20031;-75
2023/12/06 04:19:47;;;;;;;32.45;14.65;;;;;;;;;;5095292;28;20020;-76
2023/12/06 04:22:12;;;;;;;24.85;11.35;;;;;;;;;;5095429;28;20031;-76
2023/12/06 04:24:37;;;;;;;28.73;13.15;;;;;;;;;;5096078;28;20039;-75
2023/12/06 04:27:03;;;;;;;35.45;14.82;;;;;;;;;;5095569;28;20020;-75
2023/12/06 04:29:28;;;;;;;35.45;14.80;;;;;;;;;;5095371;28;20032;-75
2023/12/06 04:31:54;;;;;;;31.00;13.35;;;;;;;;;;5095475;28;20107;-76
2023/12/06 04:34:19;;;;;;;30.25;13.13;;;;;;;;;;5095328;28;20028;-76
2023/12/06 04:36:44;;;;;;;30.63;11.82;;;;;;;;;;5095278;28;20027;-75
2023/12/06 04:39:09;;;;;;;32.90;14.32;;;;;;;;;;5095422;28;20024;-76
2023/12/06 04:41:35;;;;;;;29.85;13.27;;;;;;;;;;5095006;28;20100;-76
2023/12/06 04:44:00;;;;;;;33.35;13.60;;;;;;;;;;5095861;28;20024;-76
2023/12/06 04:46:25;;;;;;;32.47;13.52;;;;;;;;;;5095055;28;20027;-77
2023/12/06 04:48:50;;;;;;;24.35;11.38;;;;;;;;;;5095740;28;20032;-76
2023/12/06 04:51:15;;;;;;;33.90;13.70;;;;;;;;;;5095456;28;20027;-76
2023/12/06 04:53:41;;;;;;;34.50;14.20;;;;;;;;;;5095518;28;20023;-76
2023/12/06 04:56:07;;;;;;;27.65;10.70;;;;;;;;;;5094830;28;20039;-75
2023/12/06 04:58:32;;;;;;;24.90;10.88;;;;;;;;;;5093640;28;20031;-77
2023/12/06 05:00:57;;;;;;;28.15;12.65;;;;;;;;;;5094831;28;20024;-75
2023/12/06 05:03:22;;;;;;;27.95;12.15;;;;;;;;;;5094706;28;20428;-75
2023/12/06 05:05:47;;;;;;;25.90;11.48;;;;;;;;;;5093592;28;20107;-76
2023/12/06 05:08:13;;;;;;;34.20;14.95;;;;;;;;;;5093236;28;20051;-76
2023/12/06 05:10:38;;;;;;;24.38;11.07;;;;;;;;;;5094376;28;20031;-75
2023/12/06 05:13:03;;;;;;;17.45;6.72;;;;;;;;;;5093263;28;20016;-76
2023/12/06 05:15:28;;;;;;;34.17;14.65;;;;;;;;;;5093876;28;20020;-76
2023/12/06 05:17:54;;;;;;;14.35;8.27;;;;;;;;;;5094539;28;20020;-75
2023/12/06 05:20:19;;;;;;;30.75;13.18;;;;;;;;;;5094702;28;20505;-75
2023/12/06 05:22:44;;;;;;;29.70;14.48;;;;;;;;;;5094485;28;20475;-74
2023/12/06 05:25:09;;;;;;;33.60;14.52;;;;;;;;;;5094355;28;20116;-75
2023/12/06 05:27:35;;;;;;;27.38;12.27;;;;;;;;;;5094442;28;20039;-75
2023/12/06 05:30:00;;;;;;;34.60;13.60;;;;;;;;;;5094292;28;20028;-75
2023/12/06 05:32:25;;;;;;;34.05;14.48;;;;;;;;;;5093612;28;20401;-75
2023/12/06 05:34:51;;;;;;;26.35;12.40;;;;;;;;;;5095308;28;20027;-76
2023/12/06 05:37:16;;;;;;;36.40;13.48;;;;;;;;;;5095417;28;20077;-74
2023/12/06 05:39:41;;;;;;;34.72;13.80;;;;;;;;;;5093758;28;20031;-76
2023/12/06 05:42:07;;;;;;;29.95;13.15;;;;;;;;;;5094784;28;20425;-75
2023/12/06 05:44:33;;;;;;;25.42;11.98;;;;;;;;;;5096427;28;20031;-76
2023/12/06 05:46:58;;;;;;;28.48;13.45;;;;;;;;;;5095262;28;20027;-75
2023/12/06 05:49:23;;;;;;;33.03;13.77;;;;;;;;;;5095508;28;20024;-75
2023/12/06 05:51:48;;;;;;;30.42;13.48;;;;;;;;;;5095131;28;20028;-75
2023/12/06 05:54:14;;;;;;;27.65;12.82;;;;;;;;;;5094444;28;20016;-76
2023/12/06 05:56:39;;;;;;;27.40;13.13;;;;;;;;;;5094443;28;20513;-76
2023/12/06 05:59:04;;;;;;;19.33;7.85;;;;;;;;;;5093817;28;20387;-76
2023/12/06 06:01:29;;;;;;;30.98;13.02;;;;;;;;;;5093518;28;20050;-75
2023/12/06 06:03:55;;;;;;;25.35;11.20;;;;;;;;;;5093670;28;20103;-76
2023/12/06 06:06:20;;;;;;;29.55;13.02;;;;;;;;;;5092288;28;20024;-75
2023/12/06 06:08:45;;;;;;;32.33;13.30;;;;;;;;;;5093447;28;20079;-73
2023/12/06 06:11:10;;;;;;;30.63;13.27;;;;;;;;;;5094091;28;20028;-76
2023/12/06 06:13:35;;;;;;;25.00;12.52;;;;;;;;;;5094091;28;20027;-75
2023/12/06 06:16:07;;;;;;;25.35;11.57;;;;;;;;;;5094168;28;20034;-77
2023/12/06 06:18:32;;;;;;;27.35;11.65;;;;;;;;;;5094328;28;20070;-75
2023/12/06 06:20:58;;;;;;;35.45;14.57;;;;;;;;;;5092713;28;20052;-76
2023/12/06 06:23:24;;;;;;;32.25;13.80;;;;;;;;;;5092452;28;20020;-76
2023/12/06 06:25:49;;;;;;;28.65;12.13;;;;;;;;;;5094435;28;20117;-76
2023/12/06 06:28:15;;;;;;;27.15;12.57;;;;;;;;;;5093529;28;20059;-74
2023/12/06 06:30:40;;;;;;;29.20;12.30;;;;;;;;;;5096344;28;20051;-78
2023/12/06 06:33:05;;;;;;;23.58;11.45;;;;;;;;;;5099569;28;20032;-82
2023/12/06 06:35:30;;;;;;;31.65;14.25;;;;;;;;;;5095978;28;20024;-76
2023/12/06 06:37:56;;;;;;;31.27;13.85;;;;;;;;;;5093543;28;20026;-75
2023/12/06 06:40:22;;;;;;;33.65;12.48;;;;;;;;;;5093245;28;20115;-76
2023/12/06 06:42:48;;;;;;;31.10;13.77;;;;;;;;;;5095053;28;20024;-76
2023/12/06 06:45:13;;;;;;;32.17;14.25;;;;;;;;;;5097366;28;20069;-77
2023/12/06 06:47:38;;;;;;;21.30;9.13;;;;;;;;;;5097273;28;20443;-76
2023/12/06 06:50:04;;;;;;;31.70;12.90;;;;;;;;;;5097219;28;20024;-77
2023/12/06 06:52:32;;;;;;;32.05;14.20;;;;;;;;;;5096219;28;20322;-76
2023/12/06 06:54:57;;;;;;;21.60;10.63;;;;;;;;;;5098014;28;20064;-77
2023/12/06 06:57:22;;;;;;;26.52;12.00;;;;;;;;;;5097314;28;20368;-76
2023/12/06 06:59:48;;;;;;;28.85;12.50;;;;;;;;;;5097132;28;20048;-75
2023/12/06 07:02:13;;;;;;;26.00;12.25;;;;;;;;;;5097065;28;20115;-76
2023/12/06 07:04:38;;;;;;;22.70;11.43;;;;;;;;;;5095797;28;20103;-77
2023/12/06 07:07:04;;;;;;;32.75;13.68;;;;;;;;;;5096998;28;20483;-76
2023/12/06 07:09:29;;;;;;;29.00;11.18;;;;;;;;;;5097198;28;20169;-76
2023/12/06 07:11:55;;;;;;;28.33;13.75;;;;;;;;;;5097309;28;20043;-77
2023/12/06 07:14:20;;;;;;;29.63;12.85;;;;;;;;;;5095554;28;20028;-77
2023/12/06 07:16:46;;;;;;;27.00;12.10;;;;;;;;;;5097516;28;20020;-75
2023/12/06 07:19:12;;;;;;;24.73;11.50;;;;;;;;;;5096917;28;20016;-76
2023/12/06 07:21:38;;;;;;;30.98;13.40;;;;;;;;;;5097014;28;20501;-77
2023/12/06 07:24:03;;;;;;;22.77;9.57;;;;;;;;;;5097173;28;20032;-77
2023/12/06 07:26:28;;;;;;;13.95;6.38;;;;;;;;;;5096767;28;20038;-76
2023/12/06 07:28:53;;;;;;;31.00;13.52;;;;;;;;;;5097008;28;20055;-77
2023/12/06 07:31:19;;;;;;;31.45;12.75;;;;;;;;;;5096975;28;20020;-76
2023/12/06 07:33:44;;;;;;;25.42;12.77;;;;;;;;;;5095325;28;20027;-76
2023/12/06 07:36:11;;;;;;;30.92;13.95;;;;;;;;;;5096317;28;20092;-76
2023/12/06 07:38:36;;;;;;;29.50;13.43;;;;;;;;;;5095269;28;20077;-76
2023/12/06 07:41:02;;;;;;;27.77;11.55;;;;;;;;;;5095079;28;20478;-77
2023/12/06 07:43:27;;;;;;;23.30;9.60;;;;;;;;;;5096277;28;20024;-76
2023/12/06 07:45:53;;;;;;;24.85;11.60;;;;;;;;;;5096897;28;20483;-77
2023/12/06 07:48:18;;;;;;;28.85;13.27;;;;;;;;;;5097260;28;20032;-76
2023/12/06 07:50:43;;;;;;;25.40;12.67;;;;;;;;;;5096937;28;20054;-77
2023/12/06 07:53:09;;;;;;;34.65;14.88;;;;;;;;;;5096647;28;20244;-77
2023/12/06 07:55:34;;;;;;;27.55;12.20;;;;;;;;;;5095590;28;20020;-76
2023/12/06 07:57:59;;;;;;;25.95;11.07;;;;;;;;;;5096128;28;20063;-78
2023/12/06 08:00:25;;;;;;;25.92;10.95;;;;;;;;;;5096369;28;20020;-76
2023/12/06 08:02:50;;;;;;;35.03;14.68;;;;;;;;;;5095792;28;20030;-77
2023/12/06 08:05:19;;;;;;;32.58;14.18;;;;;;;;;;5094847;28;20094;-77
2023/12/06 08:07:44;;;;;;;26.33;12.52;;;;;;;;;;5096216;28;20031;-76
2023/12/06 08:10:19;;;;;;;31.45;14.20;;;;;;;;;;5096082;28;20032;-77
2023/12/06 08:12:44;;;;;;;30.35;14.25;;;;;;;;;;5095391;28;20487;-76
2023/12/06 08:15:09;;;;;;;28.98;13.43;;;;;;;;;;5095498;28;20161;-76
2023/12/06 08:17:35;;;;;;;26.73;13.00;;;;;;;;;;5095301;28;20387;-76
2023/12/06 08:20:00;;;;;;;27.25;11.45;;;;;;;;;;5096404;28;20108;-77
2023/12/06 08:22:26;;;;;;;29.90;12.77;;;;;;;;;;5094213;28;20027;-75
2023/12/06 08:24:56;;;;;;;34.58;13.23;;;;;;;;;;5094812;28;20024;-76
2023/12/06 08:27:29;;;;;;;26.75;11.93;;;;;;;;;;5095454;28;20028;-76
2023/12/06 08:29:55;;;;;;;26.60;11.23;;;;;;;;;;5095465;28;20144;-76
2023/12/06 08:32:20;;;;;;;26.70;12.02;;;;;;;;;;5095183;28;20028;-76
2023/12/06 08:34:45;;;;;;;31.30;13.45;;;;;;;;;;5095226;28;20022;-76
2023/12/06 08:37:11;;;;;;;29.73;13.38;;;;;;;;;;5095371;28;20055;-76
2023/12/06 08:39:36;;;;;;;27.27;12.70;;;;;;;;;;5095656;28;20024;-76
2023/12/06 08:42:01;;;;;;;29.40;13.50;;;;;;;;;;5094815;28;20028;-76
2023/12/06 08:44:28;;;;;;;28.92;13.32;;;;;;;;;;5093909;28;20255;-77
2023/12/06 08:46:53;;;;;;;33.50;14.13;;;;;;;;;;5095545;28;20491;-77
2023/12/06 08:49:18;;;;;;;23.77;10.27;;;;;;;;;;5095700;28;20036;-76
2023/12/06 08:51:44;;;;;;;29.10;12.55;;;;;;;;;;5095114;28;20030;-76
2023/12/06 08:54:09;;;;;;;30.83;13.52;;;;;;;;;;5094976;28;20047;-77
2023/12/06 08:56:37;;;;;;;28.20;13.20;;;;;;;;;;5093752;28;20032;-75
2023/12/06 08:59:02;;;;;;;29.02;13.25;;;;;;;;;;5095091;28;20031;-76
2023/12/06 09:01:27;;;;;;;22.50;10.75;;;;;;;;;;5094887;28;20483;-77
2023/12/06 09:03:52;;;;;;;28.20;13.10;;;;;;;;;;5095153;28;20062;-76
2023/12/06 09:06:17;;;;;;;30.42;12.65;;;;;;;;;;5094398;28;20251;-75
2023/12/06 09:08:43;;;;;;;26.13;11.20;;;;;;;;;;5094558;28;20032;-76
2023/12/06 09:11:08;;;;;;;23.63;10.45;;;;;;;;;;5093370;28;20073;-76
2023/12/06 09:13:33;;;;;;;31.90;13.70;;;;;;;;;;5094369;28;20031;-76
2023/12/06 09:15:58;;;;;;;18.42;7.78;;;;;;;;;;5093566;28;20502;-77
2023/12/06 09:18:24;;;;;;;29.10;12.98;;;;;;;;;;5093041;28;20073;-76
2023/12/06 09:20:49;;;;;;;20.00;8.30;;;;;;;;;;5093808;28;20020;-76
2023/12/06 09:23:14;;;;;;;27.37;12.73;;;;;;;;;;5093839;28;20157;-77
2023/12/06 09:25:39;;;;;;;28.38;13.18;;;;;;;;;;5092648;28;20289;-77
2023/12/06 09:28:06;;;;;;;25.77;12.25;;;;;;;;;;5093308;28;20085;-77
2023/12/06 09:30:31;;;;;;;29.80;12.88;;;;;;;;;;5092908;28;20024;-76
2023/12/06 09:32:56;;;;;;;29.60;13.80;;;;;;;;;;5093095;28;20024;-75
2023/12/06 09:35:22;;;;;;;30.95;13.23;;;;;;;;;;5092952;28;20027;-76
2023/12/06 09:37:47;;;;;;;25.45;10.57;;;;;;;;;;5092725;28;20028;-76
2023/12/06 09:40:13;;;;;;;31.15;13.25;;;;;;;;;;5092964;28;20023;-76
2023/12/06 09:42:43;;;;;;;31.85;14.82;;;;;;;;;;5093758;28;20549;-76
2023/12/06 09:45:08;;;;;;;26.27;13.20;;;;;;;;;;5094022;28;20080;-76
2023/12/06 09:47:34;;;;;;;29.50;13.25;;;;;;;;;;5092450;28;20016;-76
2023/12/06 09:50:00;;;;;;;28.15;12.40;;;;;;;;;;5094562;28;20124;-76
2023/12/06 09:52:25;;;;;;;29.15;12.75;;;;;;;;;;5094050;28;20534;-76
2023/12/06 09:54:51;;;;;;;22.70;10.65;;;;;;;;;;5093886;28;20032;-77
2023/12/06 09:57:16;;;;;;;24.35;12.20;;;;;;;;;;5093795;28;20020;-76
2023/12/06 09:59:42;;;;;;;26.42;12.90;;;;;;;;;;5092428;28;20398;-76
2023/12/06 10:02:07;;;;;;;30.92;12.90;;;;;;;;;;5094531;28;20099;-77
2023/12/06 10:04:34;;;;;;;29.65;12.82;;;;;;;;;;5092451;28;20016;-76
2023/12/06 10:07:00;;;;;;;25.80;12.98;;;;;;;;;;5093806;28;20027;-76
2023/12/06 10:09:25;;;;;;;27.30;12.45;;;;;;;;;;5093314;28;20110;-76
2023/12/06 10:11:50;;;;;;;23.83;12.35;;;;;;;;;;5093362;28;20107;-76
2023/12/06 10:14:20;;;;;;;20.65;9.65;;;;;;;;;;5093816;28;20036;-75
2023/12/06 10:16:48;;;;;;;26.83;11.88;;;;;;;;;;5094356;28;20042;-76
2023/12/06 10:19:22;;;;;;;25.30;11.40;;;;;;;;;;5094056;28;20024;-75
2023/12/06 10:21:47;;;;;;;26.30;10.95;;;;;;;;;;5093299;28;20417;-76
2023/12/06 10:24:13;;;;;;;21.88;11.27;;;;;;;;;;5095291;28;20090;-77
2023/12/06 10:26:39;;;;;;;23.42;12.38;;;;;;;;;;5094609;28;20534;-75
2023/12/06 10:29:04;;;;;;;25.75;11.45;;;;;;;;;;5094991;28;20386;-77
2023/12/06 10:31:42;;;;;;;24.05;10.90;;;;;;;;;;5093145;28;20028;-76
2023/12/06 10:34:08;;;;;;;27.42;12.02;;;;;;;;;;5092957;28;20032;-76
2023/12/06 10:36:34;;;;;;;21.92;11.30;;;;;;;;;;5092764;28;20074;-76
2023/12/06 10:39:00;;;;;;;22.35;11.52;;;;;;;;;;5093572;28;20035;-76
2023/12/06 10:41:26;;;;;;;25.02;12.07;;;;;;;;;;5091894;28;20047;-76
2023/12/06 10:43:55;;;;;;;23.60;11.00;;;;;;;;;;5092357;28;20077;-76
2023/12/06 10:46:21;;;;;;;22.50;11.25;;;;;;;;;;5093780;28;20035;-75
2023/12/06 10:48:48;;;;;;;22.02;10.57;;;;;;;;;;5092523;28;20021;-77
2023/12/06 10:51:14;;;;;;;22.02;11.02;;;;;;;;;;5093917;28;20031;-76
2023/12/06 10:53:41;;;;;;;22.92;10.80;;;;;;;;;;5092942;28;20044;-77
2023/12/06 10:56:07;;;;;;;21.63;10.32;;;;;;;;;;5091717;28;20081;-77
2023/12/06 10:58:34;;;;;;;23.33;10.70;;;;;;;;;;5092880;28;20027;-77
2023/12/06 11:01:00;;;;;;;21.98;10.77;;;;;;;;;;5090600;28;20016;-77
2023/12/06 11:03:25;;;;;;;23.15;10.88;;;;;;;;;;5090207;28;20020;-76
2023/12/06 11:05:56;;;;;;;22.13;11.13;;;;;;;;;;5092956;28;20031;-76
2023/12/06 11:08:37;;;;;;;22.25;11.10;;;;;;;;;;5092885;28;20592;-76
2023/12/06 11:11:21;;;;;;;20.52;10.32;;;;;;;;;;5092549;28;20487;-77
2023/12/06 11:14:19;;;;;;;21.90;10.52;;;;;;;;;;5091476;28;20444;-77
2023/12/06 11:17:04;;;;;;;20.65;10.52;;;;;;;;;;5092804;28;20036;-76
2023/12/06 11:19:31;;;;;;;20.95;9.63;;;;;;;;;;5091467;28;20080;-77
2023/12/06 11:21:57;;;;;;;20.08;9.85;;;;;;;;;;5092712;28;20016;-77
2023/12/06 11:24:23;;;;;;;20.20;9.48;;;;;;;;;;5092766;28;20033;-77
2023/12/06 11:26:50;;;;;;;18.40;9.32;;;;;;;;;;5093015;28;20024;-76
2023/12/06 11:29:15;;;;;;;21.02;9.80;;;;;;;;;;5092371;28;20109;-77
2023/12/06 11:31:40;;;;;;;20.50;9.85;;;;;;;;;;5096670;28;20154;-78
2023/12/06 11:34:08;;;;;;;20.88;10.32;;;;;;;;;;5096565;28;20023;-76
2023/12/06 11:36:35;;;;;;;18.83;9.73;;;;;;;;;;5096734;28;20073;-77
2023/12/06 11:39:13;;;;;;;20.05;10.32;;;;;;;;;;5095872;28;20027;-77
2023/12/06 11:41:45;;;;;;;21.23;10.25;;;;;;;;;;5096487;28;20036;-76
2023/12/06 11:44:16;;;;;;;21.70;10.13;;;;;;;;;;5096688;28;20052;-77
2023/12/06 11:46:51;;;;;;;23.33;10.57;;;;;;;;;;5095118;28;20032;-77
2023/12/06 11:49:20;;;;;;;18.02;9.27;;;;;;;;;;5097147;28;20089;-80
2023/12/06 11:51:51;;;;;;;22.00;10.82;;;;;;;;;;5096908;28;20035;-76
2023/12/06 11:54:16;;;;;;;18.20;9.30;;;;;;;;;;5096432;28;20476;-76
2023/12/06 11:56:41;;;;;;;21.30;10.10;;;;;;;;;;5096662;28;20027;-79
2023/12/06 11:59:08;;;;;;;24.15;11.00;;;;;;;;;;5097668;28;20399;-75
2023/12/06 12:01:34;;;;;;;25.00;11.15;;;;;;;;;;5096293;28;20445;-79
2023/12/06 12:03:59;;;;;;;19.85;10.13;;;;;;;;;;5096182;28;20072;-76
2023/12/06 12:06:27;;;;;;;25.95;11.13;;;;;;;;;;5096076;28;20046;-82
2023/12/06 12:08:52;;;;;;;21.08;10.98;;;;;;;;;;5094611;28;20115;-77
2023/12/06 12:11:18;;;;;;;22.20;10.93;;;;;;;;;;5097772;28;20148;-79
2023/12/06 12:13:43;;;;;;;20.73;9.98;;;;;;;;;;5103786;28;20046;-79
2023/12/06 12:16:10;;;;;;;20.08;10.10;;;;;;;;;;5101603;28;20046;-79
2023/12/06 12:18:35;;;;;;;18.98;9.25;;;;;;;;;;5095689;28;20020;-77
2023/12/06 12:21:16;;;;;;;19.08;10.23;;;;;;;;;;5096333;28;20028;-76
2023/12/06 12:23:41;;;;;;;21.23;9.73;;;;;;;;;;5095530;28;20031;-79
2023/12/06 12:26:13;;;;;;;21.00;10.13;;;;;;;;;;5094608;28;20024;-76
2023/12/06 12:28:39;;;;;;;25.23;9.80;;;;;;;;;;5094221;28;20047;-77
2023/12/06 12:31:05;;;;;;;23.05;10.43;;;;;;;;;;5096108;28;20432;-77
2023/12/06 12:33:31;;;;;;;20.17;10.63;;;;;;;;;;5095153;28;20028;-76
2023/12/06 12:35:57;;;;;;;20.92;9.75;;;;;;;;;;5094230;28;20076;-76
2023/12/06 12:38:23;;;;;;;19.65;9.18;;;;;;;;;;5093664;28;20055;-77
2023/12/06 12:40:48;;;;;;;18.17;9.88;;;;;;;;;;5094245;28;20027;-76
2023/12/06 12:43:15;;;;;;;21.55;10.45;;;;;;;;;;5091518;28;20024;-77
2023/12/06 12:45:41;;;;;;;19.90;9.88;;;;;;;;;;5094868;28;20585;-77
2023/12/06 12:48:06;;;;;;;21.25;9.73;;;;;;;;;;5093881;28;20027;-77
2023/12/06 12:50:32;;;;;;;23.45;11.00;;;;;;;;;;5094902;28;20085;-76
2023/12/06 12:52:59;;;;;;;21.75;10.25;;;;;;;;;;5093349;28;20031;-76
2023/12/06 12:55:25;;;;;;;18.00;9.32;;;;;;;;;;5095012;28;20102;-77
2023/12/06 12:57:50;;;;;;;20.80;10.45;;;;;;;;;;5094330;28;20083;-76
2023/12/06 13:00:15;;;;;;;19.67;9.98;;;;;;;;;;5095131;28;20024;-76
2023/12/06 13:02:41;;;;;;;20.60;10.35;;;;;;;;;;5093090;28;20441;-77
2023/12/06 13:05:07;;;;;;;22.33;9.80;;;;;;;;;;5093092;28;20437;-75
2023/12/06 13:07:35;;;;;;;22.20;9.98;;;;;;;;;;5093124;28;20020;-76
2023/12/06 13:10:04;;;;;;;18.95;10.07;;;;;;;;;;5092767;28;20081;-75
2023/12/06 13:12:29;;;;;;;18.00;9.48;;;;;;;;;;5092755;28;20023;-76
2023/12/06 13:14:54;;;;;;;21.47;10.27;;;;;;;;;;5094001;28;20111;-76
2023/12/06 13:17:20;;;;;;;21.23;10.45;;;;;;;;;;5093082;28;20296;-77
2023/12/06 13:19:45;;;;;;;20.50;10.38;;;;;;;;;;5093231;28;20020;-78
2023/12/06 13:22:10;;;;;;;25.40;10.43;;;;;;;;;;5092304;28;20027;-80
2023/12/06 13:24:36;;;;;;;20.17;10.00;;;;;;;;;;5094091;28;20031;-77
2023/12/06 13:27:01;;;;;;;23.58;10.60;;;;;;;;;;5092508;28;20028;-79
2023/12/06 13:29:27;;;;;;;21.27;10.52;;;;;;;;;;5093258;28;20020;-78
2023/12/06 13:31:52;;;;;;;19.47;10.23;;;;;;;;;;5092599;28;20081;-78
2023/12/06 13:34:18;;;;;;;21.20;10.27;;;;;;;;;;5093391;28;20260;-77
2023/12/06 13:36:43;;;;;;;21.42;10.85;;;;;;;;;;5094263;28;20413;-77
2023/12/06 13:39:11;;;;;;;20.95;10.45;;;;;;;;;;5093436;28;20024;-76
2023/12/06 13:41:36;;;;;;;18.98;9.45;;;;;;;;;;5094277;28;20016;-76
2023/12/06 13:44:02;;;;;;;21.15;10.70;;;;;;;;;;5093960;28;20032;-77
2023/12/06 13:46:27;;;;;;;24.52;10.68;;;;;;;;;;5093716;28;20069;-77
2023/12/06 13:48:52;;;;;;;23.40;11.65;;;;;;;;;;5093770;28;20072;-77
2023/12/06 13:51:17;;;;;;;22.88;10.52;;;;;;;;;;5092821;28;20132;-78
2023/12/06 13:53:42;;;;;;;21.52;11.40;;;;;;;;;;5091696;28;20031;-77
2023/12/06 13:56:09;;;;;;;23.67;11.65;;;;;;;;;;5093365;28;20023;-76
2023/12/06 13:58:34;;;;;;;25.13;12.32;;;;;;;;;;5092692;28;20048;-78
2023/12/06 14:01:00;;;;;;;29.08;14.23;;;;;;;;;;5092959;28;20447;-77
2023/12/06 14:03:27;;;;;;;28.50;13.10;;;;;;;;;;5093108;28;20506;-77
2023/12/06 14:05:52;;;;;;;32.05;14.35;;;;;;;;;;5093214;28;20282;-75
2023/12/06 14:08:17;;;;;;;33.33;16.05;;;;;;;;;;5091743;28;20062;-76
2023/12/06 14:10:42;;;;;;;33.65;16.13;;;;;;;;;;5093370;28;20553;-77